sensor_id;sensor_type;location;lat;lon;timestamp;P1;durP1;ratioP1;P2;durP2;ratioP2
45368;SDS011;51342;55.250;37.668;2022-08-05T00:01:56;18.77;;;16.85;;
45368;SDS011;51342;55.250;37.668;2022-08-05T00:04:27;20.55;;;18.45;;
45368;SDS011;51342;55.250;37.668;2022-08-05T00:06:58;21.40;;;19.27;;
45368;SDS011;51342;55.250;37.668;2022-08-05T00:09:30;19.92;;;17.92;;
45368;SDS011;51342;55.250;37.668;2022-08-05T00:12:01;22.38;;;17.90;;
45368;SDS011;51342;55.250;37.668;2022-08-05T00:14:33;19.40;;;17.40;;
45368;SDS011;51342;55.250;37.668;2022-08-05T00:17:05;20.42;;;18.15;;
45368;SDS011;51342;55.250;37.668;2022-08-05T00:19:36;20.05;;;17.52;;
45368;SDS011;51342;55.250;37.668;2022-08-05T00:22:08;21.30;;;18.15;;
45368;SDS011;51342;55.250;37.668;2022-08-05T00:24:39;19.92;;;17.92;;
45368;SDS011;51342;55.250;37.668;2022-08-05T00:27:11;19.92;;;16.95;;
45368;SDS011;51342;55.250;37.668;2022-08-05T00:29:43;20.90;;;18.77;;
45368;SDS011;51342;55.250;37.668;2022-08-05T00:32:14;19.58;;;17.35;;
45368;SDS011;51342;55.250;37.668;2022-08-05T00:34:46;19.95;;;17.30;;
45368;SDS011;51342;55.250;37.668;2022-08-05T00:37:17;19.50;;;17.40;;
45368;SDS011;51342;55.250;37.668;2022-08-05T00:39:49;21.40;;;19.10;;
45368;SDS011;51342;55.250;37.668;2022-08-05T00:42:34;20.50;;;18.27;;
45368;SDS011;51342;55.250;37.668;2022-08-05T00:45:07;20.02;;;18.02;;
45368;SDS011;51342;55.250;37.668;2022-08-05T00:47:39;19.95;;;17.83;;
45368;SDS011;51342;55.250;37.668;2022-08-05T00:50:11;21.70;;;18.52;;
45368;SDS011;51342;55.250;37.668;2022-08-05T00:52:42;20.63;;;18.17;;
45368;SDS011;51342;55.250;37.668;2022-08-05T00:55:14;19.88;;;17.92;;
45368;SDS011;51342;55.250;37.668;2022-08-05T00:57:45;23.08;;;19.02;;
45368;SDS011;51342;55.250;37.668;2022-08-05T01:00:16;20.98;;;18.77;;
45368;SDS011;51342;55.250;37.668;2022-08-05T01:02:48;19.80;;;17.65;;
45368;SDS011;51342;55.250;37.668;2022-08-05T01:05:22;21.05;;;18.30;;
45368;SDS011;51342;55.250;37.668;2022-08-05T01:07:54;20.00;;;17.92;;
45368;SDS011;51342;55.250;37.668;2022-08-05T01:10:27;21.75;;;17.88;;
45368;SDS011;51342;55.250;37.668;2022-08-05T01:13:12;20.27;;;18.00;;
45368;SDS011;51342;55.250;37.668;2022-08-05T01:15:55;19.40;;;17.25;;
45368;SDS011;51342;55.250;37.668;2022-08-05T01:18:30;20.55;;;18.30;;
45368;SDS011;51342;55.250;37.668;2022-08-05T01:26:56;19.30;;;17.13;;
45368;SDS011;51342;55.250;37.668;2022-08-05T01:32:07;16.90;;;15.23;;
45368;SDS011;51342;55.250;37.668;2022-08-05T01:34:46;17.08;;;15.38;;
45368;SDS011;51342;55.250;37.668;2022-08-05T01:40:15;16.65;;;14.95;;
45368;SDS011;51342;55.250;37.668;2022-08-05T01:42:48;16.63;;;14.77;;
45368;SDS011;51342;55.250;37.668;2022-08-05T01:45:22;18.83;;;15.68;;
45368;SDS011;51342;55.250;37.668;2022-08-05T01:47:54;17.75;;;15.32;;
45368;SDS011;51342;55.250;37.668;2022-08-05T01:50:30;17.63;;;15.88;;
45368;SDS011;51342;55.250;37.668;2022-08-05T01:53:08;17.95;;;16.08;;
45368;SDS011;51342;55.250;37.668;2022-08-05T01:55:43;18.03;;;16.23;;
45368;SDS011;51342;55.250;37.668;2022-08-05T01:58:16;18.13;;;16.23;;
45368;SDS011;51342;55.250;37.668;2022-08-05T02:00:50;18.52;;;16.52;;
45368;SDS011;51342;55.250;37.668;2022-08-05T02:03:24;19.23;;;17.27;;
45368;SDS011;51342;55.250;37.668;2022-08-05T02:06:02;19.13;;;17.15;;
45368;SDS011;51342;55.250;37.668;2022-08-05T02:08:36;17.90;;;16.00;;
45368;SDS011;51342;55.250;37.668;2022-08-05T02:11:13;19.23;;;17.25;;
45368;SDS011;51342;55.250;37.668;2022-08-05T02:18:59;20.27;;;18.27;;
45368;SDS011;51342;55.250;37.668;2022-08-05T02:21:38;19.48;;;17.33;;
45368;SDS011;51342;55.250;37.668;2022-08-05T02:24:36;20.73;;;17.63;;
45368;SDS011;51342;55.250;37.668;2022-08-05T02:27:10;20.38;;;18.38;;
45368;SDS011;51342;55.250;37.668;2022-08-05T02:29:43;20.55;;;18.35;;
45368;SDS011;51342;55.250;37.668;2022-08-05T02:32:17;19.38;;;17.48;;
45368;SDS011;51342;55.250;37.668;2022-08-05T02:34:52;19.90;;;17.80;;
45368;SDS011;51342;55.250;37.668;2022-08-05T02:37:24;19.15;;;17.15;;
45368;SDS011;51342;55.250;37.668;2022-08-05T02:39:57;22.38;;;17.65;;
45368;SDS011;51342;55.250;37.668;2022-08-05T02:42:30;20.65;;;18.38;;
45368;SDS011;51342;55.250;37.668;2022-08-05T02:45:04;19.58;;;17.52;;
45368;SDS011;51342;55.250;37.668;2022-08-05T02:47:39;19.77;;;17.77;;
45368;SDS011;51342;55.250;37.668;2022-08-05T02:50:11;20.60;;;18.40;;
45368;SDS011;51342;55.250;37.668;2022-08-05T02:52:44;21.65;;;19.60;;
45368;SDS011;51342;55.250;37.668;2022-08-05T02:55:16;20.85;;;18.80;;
45368;SDS011;51342;55.250;37.668;2022-08-05T02:57:48;21.50;;;19.33;;
45368;SDS011;51342;55.250;37.668;2022-08-05T03:00:20;21.83;;;17.98;;
45368;SDS011;51342;55.250;37.668;2022-08-05T03:02:52;22.70;;;18.67;;
45368;SDS011;51342;55.250;37.668;2022-08-05T03:05:24;19.83;;;17.67;;
45368;SDS011;51342;55.250;37.668;2022-08-05T03:07:56;20.67;;;18.48;;
45368;SDS011;51342;55.250;37.668;2022-08-05T03:10:28;22.52;;;19.20;;
45368;SDS011;51342;55.250;37.668;2022-08-05T03:13:00;20.58;;;18.48;;
45368;SDS011;51342;55.250;37.668;2022-08-05T03:15:31;19.67;;;17.63;;
45368;SDS011;51342;55.250;37.668;2022-08-05T03:18:03;20.17;;;17.95;;
45368;SDS011;51342;55.250;37.668;2022-08-05T03:20:34;20.00;;;17.90;;
45368;SDS011;51342;55.250;37.668;2022-08-05T03:23:07;18.98;;;17.00;;
45368;SDS011;51342;55.250;37.668;2022-08-05T03:25:40;19.58;;;17.55;;
45368;SDS011;51342;55.250;37.668;2022-08-05T03:28:12;20.63;;;18.52;;
45368;SDS011;51342;55.250;37.668;2022-08-05T03:30:46;22.15;;;19.55;;
45368;SDS011;51342;55.250;37.668;2022-08-05T03:33:19;21.15;;;18.90;;
45368;SDS011;51342;55.250;37.668;2022-08-05T03:35:51;22.13;;;17.92;;
45368;SDS011;51342;55.250;37.668;2022-08-05T03:38:23;22.50;;;16.60;;
45368;SDS011;51342;55.250;37.668;2022-08-05T03:40:55;19.08;;;17.08;;
45368;SDS011;51342;55.250;37.668;2022-08-05T03:43:27;19.70;;;17.63;;
45368;SDS011;51342;55.250;37.668;2022-08-05T03:45:58;18.80;;;16.98;;
45368;SDS011;51342;55.250;37.668;2022-08-05T03:48:30;18.63;;;16.75;;
45368;SDS011;51342;55.250;37.668;2022-08-05T03:53:37;19.08;;;16.90;;
45368;SDS011;51342;55.250;37.668;2022-08-05T03:56:28;19.85;;;16.65;;
45368;SDS011;51342;55.250;37.668;2022-08-05T03:59:07;18.13;;;16.13;;
45368;SDS011;51342;55.250;37.668;2022-08-05T04:01:43;19.38;;;16.08;;
45368;SDS011;51342;55.250;37.668;2022-08-05T04:04:16;18.20;;;15.07;;
45368;SDS011;51342;55.250;37.668;2022-08-05T04:06:51;17.83;;;15.93;;
45368;SDS011;51342;55.250;37.668;2022-08-05T04:09:23;19.73;;;15.38;;
45368;SDS011;51342;55.250;37.668;2022-08-05T04:11:56;17.73;;;15.32;;
45368;SDS011;51342;55.250;37.668;2022-08-05T04:14:27;17.42;;;14.82;;
45368;SDS011;51342;55.250;37.668;2022-08-05T04:17:01;20.75;;;15.85;;
45368;SDS011;51342;55.250;37.668;2022-08-05T04:19:39;21.35;;;16.08;;
45368;SDS011;51342;55.250;37.668;2022-08-05T04:22:15;16.95;;;14.88;;
45368;SDS011;51342;55.250;37.668;2022-08-05T04:24:47;17.48;;;14.27;;
45368;SDS011;51342;55.250;37.668;2022-08-05T04:27:19;18.45;;;15.57;;
45368;SDS011;51342;55.250;37.668;2022-08-05T04:29:50;16.17;;;14.38;;
45368;SDS011;51342;55.250;37.668;2022-08-05T04:32:22;17.65;;;14.50;;
45368;SDS011;51342;55.250;37.668;2022-08-05T04:34:53;19.58;;;14.40;;
45368;SDS011;51342;55.250;37.668;2022-08-05T04:37:25;15.52;;;13.68;;
45368;SDS011;51342;55.250;37.668;2022-08-05T04:39:57;14.88;;;13.38;;
45368;SDS011;51342;55.250;37.668;2022-08-05T04:42:29;16.85;;;13.77;;
45368;SDS011;51342;55.250;37.668;2022-08-05T04:45:00;14.93;;;13.35;;
45368;SDS011;51342;55.250;37.668;2022-08-05T04:47:32;15.00;;;13.50;;
45368;SDS011;51342;55.250;37.668;2022-08-05T04:50:04;14.50;;;12.95;;
45368;SDS011;51342;55.250;37.668;2022-08-05T04:52:35;16.05;;;12.90;;
45368;SDS011;51342;55.250;37.668;2022-08-05T04:55:07;13.73;;;12.30;;
45368;SDS011;51342;55.250;37.668;2022-08-05T04:57:39;14.32;;;12.38;;
45368;SDS011;51342;55.250;37.668;2022-08-05T05:00:10;13.38;;;12.07;;
45368;SDS011;51342;55.250;37.668;2022-08-05T05:02:42;13.10;;;11.20;;
45368;SDS011;51342;55.250;37.668;2022-08-05T05:05:14;13.15;;;10.95;;
45368;SDS011;51342;55.250;37.668;2022-08-05T05:07:45;13.75;;;11.50;;
45368;SDS011;51342;55.250;37.668;2022-08-05T05:10:17;14.40;;;11.20;;
45368;SDS011;51342;55.250;37.668;2022-08-05T05:12:48;11.05;;;9.93;;
45368;SDS011;51342;55.250;37.668;2022-08-05T05:15:20;12.00;;;10.68;;
45368;SDS011;51342;55.250;37.668;2022-08-05T05:17:51;10.93;;;9.77;;
45368;SDS011;51342;55.250;37.668;2022-08-05T05:20:23;10.60;;;9.43;;
45368;SDS011;51342;55.250;37.668;2022-08-05T05:22:55;12.15;;;9.60;;
45368;SDS011;51342;55.250;37.668;2022-08-05T05:25:28;10.60;;;8.82;;
45368;SDS011;51342;55.250;37.668;2022-08-05T05:28:00;10.38;;;8.70;;
45368;SDS011;51342;55.250;37.668;2022-08-05T05:30:32;10.05;;;8.95;;
45368;SDS011;51342;55.250;37.668;2022-08-05T05:33:05;10.50;;;8.40;;
45368;SDS011;51342;55.250;37.668;2022-08-05T05:35:37;9.95;;;8.32;;
45368;SDS011;51342;55.250;37.668;2022-08-05T05:38:09;9.02;;;8.23;;
45368;SDS011;51342;55.250;37.668;2022-08-05T05:40:41;13.15;;;8.32;;
45368;SDS011;51342;55.250;37.668;2022-08-05T05:43:13;10.77;;;8.40;;
45368;SDS011;51342;55.250;37.668;2022-08-05T05:45:44;10.13;;;8.07;;
45368;SDS011;51342;55.250;37.668;2022-08-05T05:48:16;9.15;;;8.20;;
45368;SDS011;51342;55.250;37.668;2022-08-05T05:50:49;11.90;;;8.02;;
45368;SDS011;51342;55.250;37.668;2022-08-05T05:53:22;9.65;;;8.00;;
45368;SDS011;51342;55.250;37.668;2022-08-05T05:55:53;11.23;;;8.38;;
45368;SDS011;51342;55.250;37.668;2022-08-05T05:58:25;8.43;;;7.35;;
45368;SDS011;51342;55.250;37.668;2022-08-05T06:00:56;10.35;;;7.05;;
45368;SDS011;51342;55.250;37.668;2022-08-05T06:03:28;9.95;;;6.93;;
45368;SDS011;51342;55.250;37.668;2022-08-05T06:05:59;9.32;;;7.00;;
45368;SDS011;51342;55.250;37.668;2022-08-05T06:08:31;8.65;;;7.85;;
45368;SDS011;51342;55.250;37.668;2022-08-05T06:11:02;9.40;;;7.35;;
45368;SDS011;51342;55.250;37.668;2022-08-05T06:13:37;9.48;;;7.43;;
45368;SDS011;51342;55.250;37.668;2022-08-05T06:16:08;7.95;;;7.15;;
45368;SDS011;51342;55.250;37.668;2022-08-05T06:18:40;10.23;;;7.38;;
45368;SDS011;51342;55.250;37.668;2022-08-05T06:21:11;7.80;;;7.00;;
45368;SDS011;51342;55.250;37.668;2022-08-05T06:23:43;8.10;;;7.40;;
45368;SDS011;51342;55.250;37.668;2022-08-05T06:26:14;7.28;;;6.57;;
45368;SDS011;51342;55.250;37.668;2022-08-05T06:28:48;9.63;;;6.85;;
45368;SDS011;51342;55.250;37.668;2022-08-05T06:31:20;8.05;;;6.57;;
45368;SDS011;51342;55.250;37.668;2022-08-05T06:33:53;8.10;;;6.93;;
45368;SDS011;51342;55.250;37.668;2022-08-05T06:36:28;7.65;;;6.90;;
45368;SDS011;51342;55.250;37.668;2022-08-05T06:39:00;6.60;;;6.00;;
45368;SDS011;51342;55.250;37.668;2022-08-05T06:41:31;7.03;;;6.30;;
45368;SDS011;51342;55.250;37.668;2022-08-05T06:44:03;7.55;;;6.00;;
45368;SDS011;51342;55.250;37.668;2022-08-05T06:46:35;7.78;;;6.50;;
45368;SDS011;51342;55.250;37.668;2022-08-05T06:49:07;9.23;;;6.88;;
45368;SDS011;51342;55.250;37.668;2022-08-05T06:51:38;7.93;;;6.45;;
45368;SDS011;51342;55.250;37.668;2022-08-05T06:54:15;7.90;;;6.60;;
45368;SDS011;51342;55.250;37.668;2022-08-05T06:56:47;8.57;;;6.28;;
45368;SDS011;51342;55.250;37.668;2022-08-05T06:59:19;6.88;;;6.18;;
45368;SDS011;51342;55.250;37.668;2022-08-05T07:01:52;8.57;;;6.30;;
45368;SDS011;51342;55.250;37.668;2022-08-05T07:04:24;8.13;;;6.15;;
45368;SDS011;51342;55.250;37.668;2022-08-05T07:06:56;8.07;;;6.75;;
45368;SDS011;51342;55.250;37.668;2022-08-05T07:09:27;7.60;;;5.95;;
45368;SDS011;51342;55.250;37.668;2022-08-05T07:12:00;6.50;;;5.90;;
45368;SDS011;51342;55.250;37.668;2022-08-05T07:14:32;7.55;;;5.93;;
45368;SDS011;51342;55.250;37.668;2022-08-05T07:17:22;7.15;;;6.07;;
45368;SDS011;51342;55.250;37.668;2022-08-05T07:19:55;7.55;;;6.32;;
45368;SDS011;51342;55.250;37.668;2022-08-05T07:22:27;7.28;;;5.97;;
45368;SDS011;51342;55.250;37.668;2022-08-05T07:25:00;6.90;;;5.95;;
45368;SDS011;51342;55.250;37.668;2022-08-05T07:27:32;8.27;;;6.13;;
45368;SDS011;51342;55.250;37.668;2022-08-05T07:30:04;7.50;;;6.50;;
45368;SDS011;51342;55.250;37.668;2022-08-05T07:32:36;6.85;;;5.90;;
45368;SDS011;51342;55.250;37.668;2022-08-05T07:35:09;6.60;;;6.00;;
45368;SDS011;51342;55.250;37.668;2022-08-05T07:37:41;7.28;;;6.20;;
45368;SDS011;51342;55.250;37.668;2022-08-05T07:40:13;6.57;;;5.35;;
45368;SDS011;51342;55.250;37.668;2022-08-05T07:42:44;8.05;;;6.35;;
45368;SDS011;51342;55.250;37.668;2022-08-05T07:45:16;7.07;;;6.38;;
45368;SDS011;51342;55.250;37.668;2022-08-05T07:47:47;6.90;;;5.97;;
45368;SDS011;51342;55.250;37.668;2022-08-05T07:50:19;7.25;;;5.80;;
45368;SDS011;51342;55.250;37.668;2022-08-05T07:52:51;8.05;;;6.63;;
45368;SDS011;51342;55.250;37.668;2022-08-05T07:55:25;6.45;;;5.72;;
45368;SDS011;51342;55.250;37.668;2022-08-05T07:57:57;6.60;;;6.00;;
45368;SDS011;51342;55.250;37.668;2022-08-05T08:00:28;8.20;;;6.25;;
45368;SDS011;51342;55.250;37.668;2022-08-05T08:03:08;7.95;;;6.30;;
45368;SDS011;51342;55.250;37.668;2022-08-05T08:05:41;7.22;;;6.45;;
45368;SDS011;51342;55.250;37.668;2022-08-05T08:08:13;7.03;;;6.43;;
45368;SDS011;51342;55.250;37.668;2022-08-05T08:10:45;7.15;;;6.35;;
45368;SDS011;51342;55.250;37.668;2022-08-05T08:13:18;10.57;;;6.53;;
45368;SDS011;51342;55.250;37.668;2022-08-05T08:15:50;7.45;;;6.57;;
45368;SDS011;51342;55.250;37.668;2022-08-05T08:18:23;7.10;;;6.18;;
45368;SDS011;51342;55.250;37.668;2022-08-05T08:20:54;7.13;;;6.43;;
45368;SDS011;51342;55.250;37.668;2022-08-05T08:23:26;6.97;;;6.28;;
45368;SDS011;51342;55.250;37.668;2022-08-05T08:25:58;8.98;;;6.50;;
45368;SDS011;51342;55.250;37.668;2022-08-05T08:28:30;7.90;;;7.18;;
45368;SDS011;51342;55.250;37.668;2022-08-05T08:31:01;7.03;;;6.32;;
45368;SDS011;51342;55.250;37.668;2022-08-05T08:33:42;7.15;;;6.45;;
45368;SDS011;51342;55.250;37.668;2022-08-05T08:36:15;8.82;;;6.78;;
45368;SDS011;51342;55.250;37.668;2022-08-05T08:38:49;7.10;;;6.35;;
45368;SDS011;51342;55.250;37.668;2022-08-05T08:41:26;7.60;;;6.82;;
45368;SDS011;51342;55.250;37.668;2022-08-05T08:44:02;7.95;;;5.97;;
45368;SDS011;51342;55.250;37.668;2022-08-05T08:46:40;7.22;;;6.00;;
45368;SDS011;51342;55.250;37.668;2022-08-05T08:49:14;7.60;;;5.95;;
45368;SDS011;51342;55.250;37.668;2022-08-05T08:52:31;9.48;;;6.30;;
45368;SDS011;51342;55.250;37.668;2022-08-05T08:54:53;6.65;;;5.68;;
45368;SDS011;51342;55.250;37.668;2022-08-05T08:57:25;7.38;;;6.07;;
45368;SDS011;51342;55.250;37.668;2022-08-05T09:00:08;6.38;;;5.78;;
45368;SDS011;51342;55.250;37.668;2022-08-05T09:02:41;8.55;;;6.07;;
45368;SDS011;51342;55.250;37.668;2022-08-05T09:05:15;7.25;;;5.30;;
45368;SDS011;51342;55.250;37.668;2022-08-05T09:07:51;9.05;;;5.43;;
45368;SDS011;51342;55.250;37.668;2022-08-05T09:10:24;5.95;;;5.40;;
45368;SDS011;51342;55.250;37.668;2022-08-05T09:12:56;5.78;;;5.10;;
45368;SDS011;51342;55.250;37.668;2022-08-05T09:15:29;8.07;;;6.30;;
45368;SDS011;51342;55.250;37.668;2022-08-05T09:18:01;6.47;;;5.65;;
45368;SDS011;51342;55.250;37.668;2022-08-05T09:20:36;6.28;;;5.13;;
45368;SDS011;51342;55.250;37.668;2022-08-05T09:23:17;6.28;;;5.63;;
45368;SDS011;51342;55.250;37.668;2022-08-05T09:26:09;7.03;;;5.50;;
45368;SDS011;51342;55.250;37.668;2022-08-05T09:28:42;5.68;;;5.18;;
45368;SDS011;51342;55.250;37.668;2022-08-05T09:31:17;7.43;;;5.63;;
45368;SDS011;51342;55.250;37.668;2022-08-05T09:33:51;7.50;;;5.68;;
45368;SDS011;51342;55.250;37.668;2022-08-05T09:39:14;6.30;;;5.68;;
45368;SDS011;51342;55.250;37.668;2022-08-05T09:42:03;6.10;;;5.53;;
45368;SDS011;51342;55.250;37.668;2022-08-05T09:44:44;5.78;;;5.30;;
45368;SDS011;51342;55.250;37.668;2022-08-05T09:47:24;6.93;;;5.93;;
45368;SDS011;51342;55.250;37.668;2022-08-05T09:49:57;6.43;;;5.53;;
45368;SDS011;51342;55.250;37.668;2022-08-05T09:52:32;7.45;;;5.53;;
45368;SDS011;51342;55.250;37.668;2022-08-05T09:55:17;5.78;;;5.15;;
45368;SDS011;51342;55.250;37.668;2022-08-05T09:57:50;7.63;;;5.53;;
45368;SDS011;51342;55.250;37.668;2022-08-05T10:00:23;6.88;;;5.57;;
45368;SDS011;51342;55.250;37.668;2022-08-05T10:02:56;7.63;;;6.43;;
45368;SDS011;51342;55.250;37.668;2022-08-05T10:05:39;6.07;;;5.55;;
45368;SDS011;51342;55.250;37.668;2022-08-05T10:08:11;6.35;;;5.75;;
45368;SDS011;51342;55.250;37.668;2022-08-05T10:13:27;7.70;;;5.72;;
45368;SDS011;51342;55.250;37.668;2022-08-05T10:16:26;5.72;;;5.22;;
45368;SDS011;51342;55.250;37.668;2022-08-05T10:19:06;5.72;;;5.13;;
45368;SDS011;51342;55.250;37.668;2022-08-05T10:21:39;8.90;;;5.35;;
45368;SDS011;51342;55.250;37.668;2022-08-05T10:24:11;5.32;;;4.82;;
45368;SDS011;51342;55.250;37.668;2022-08-05T10:26:44;6.78;;;4.88;;
45368;SDS011;51342;55.250;37.668;2022-08-05T10:29:17;5.22;;;4.72;;
45368;SDS011;51342;55.250;37.668;2022-08-05T10:31:50;6.13;;;5.53;;
45368;SDS011;51342;55.250;37.668;2022-08-05T10:34:21;6.20;;;4.82;;
45368;SDS011;51342;55.250;37.668;2022-08-05T10:36:53;6.13;;;4.82;;
45368;SDS011;51342;55.250;37.668;2022-08-05T10:39:27;7.50;;;5.50;;
45368;SDS011;51342;55.250;37.668;2022-08-05T10:42:07;6.15;;;5.35;;
45368;SDS011;51342;55.250;37.668;2022-08-05T10:44:43;5.47;;;4.97;;
45368;SDS011;51342;55.250;37.668;2022-08-05T10:47:16;8.68;;;5.10;;
45368;SDS011;51342;55.250;37.668;2022-08-05T10:50:01;6.43;;;5.40;;
45368;SDS011;51342;55.250;37.668;2022-08-05T10:52:42;8.15;;;6.63;;
45368;SDS011;51342;55.250;37.668;2022-08-05T10:55:17;8.93;;;6.75;;
45368;SDS011;51342;55.250;37.668;2022-08-05T10:58:05;6.15;;;5.10;;
45368;SDS011;51342;55.250;37.668;2022-08-05T11:00:39;5.90;;;5.22;;
45368;SDS011;51342;55.250;37.668;2022-08-05T11:03:17;5.65;;;4.80;;
45368;SDS011;51342;55.250;37.668;2022-08-05T11:06:11;10.00;;;5.63;;
45368;SDS011;51342;55.250;37.668;2022-08-05T11:11:51;5.65;;;5.05;;
45368;SDS011;51342;55.250;37.668;2022-08-05T11:14:28;5.55;;;4.70;;
45368;SDS011;51342;55.250;37.668;2022-08-05T11:20:00;5.82;;;5.07;;
45368;SDS011;51342;55.250;37.668;2022-08-05T11:22:39;6.50;;;5.78;;
45368;SDS011;51342;55.250;37.668;2022-08-05T11:25:36;6.40;;;5.20;;
45368;SDS011;51342;55.250;37.668;2022-08-05T11:33:32;7.18;;;4.85;;
45368;SDS011;51342;55.250;37.668;2022-08-05T11:36:09;9.23;;;6.38;;
45368;SDS011;51342;55.250;37.668;2022-08-05T11:46:52;5.82;;;5.05;;
45368;SDS011;51342;55.250;37.668;2022-08-05T11:49:24;5.90;;;4.95;;
45368;SDS011;51342;55.250;37.668;2022-08-05T11:51:56;6.43;;;4.75;;
45368;SDS011;51342;55.250;37.668;2022-08-05T11:54:28;6.75;;;4.72;;
45368;SDS011;51342;55.250;37.668;2022-08-05T11:57:04;5.50;;;4.97;;
45368;SDS011;51342;55.250;37.668;2022-08-05T11:59:35;7.57;;;5.68;;
45368;SDS011;51342;55.250;37.668;2022-08-05T12:02:07;5.53;;;5.03;;
45368;SDS011;51342;55.250;37.668;2022-08-05T12:04:43;5.63;;;4.95;;
45368;SDS011;51342;55.250;37.668;2022-08-05T12:07:16;5.60;;;5.10;;
45368;SDS011;51342;55.250;37.668;2022-08-05T12:09:51;7.88;;;5.38;;
45368;SDS011;51342;55.250;37.668;2022-08-05T12:12:25;10.48;;;7.30;;
45368;SDS011;51342;55.250;37.668;2022-08-05T12:15:02;6.40;;;5.78;;
45368;SDS011;51342;55.250;37.668;2022-08-05T12:17:34;24.20;;;18.85;;
45368;SDS011;51342;55.250;37.668;2022-08-05T12:20:06;20.88;;;15.70;;
45368;SDS011;51342;55.250;37.668;2022-08-05T12:22:38;48.05;;;31.63;;
45368;SDS011;51342;55.250;37.668;2022-08-05T12:25:10;10.65;;;8.13;;
45368;SDS011;51342;55.250;37.668;2022-08-05T12:27:45;24.98;;;18.67;;
45368;SDS011;51342;55.250;37.668;2022-08-05T12:30:17;16.13;;;11.63;;
45368;SDS011;51342;55.250;37.668;2022-08-05T12:32:50;14.30;;;10.93;;
45368;SDS011;51342;55.250;37.668;2022-08-05T12:35:25;6.45;;;5.22;;
45368;SDS011;51342;55.250;37.668;2022-08-05T12:37:56;5.80;;;5.20;;
45368;SDS011;51342;55.250;37.668;2022-08-05T12:40:28;5.60;;;4.93;;
45368;SDS011;51342;55.250;37.668;2022-08-05T12:42:59;7.68;;;4.75;;
45368;SDS011;51342;55.250;37.668;2022-08-05T12:45:31;6.80;;;4.45;;
45368;SDS011;51342;55.250;37.668;2022-08-05T12:48:15;6.95;;;5.25;;
45368;SDS011;51342;55.250;37.668;2022-08-05T12:53:41;5.45;;;4.90;;
45368;SDS011;51342;55.250;37.668;2022-08-05T13:01:56;5.28;;;4.78;;
45368;SDS011;51342;55.250;37.668;2022-08-05T13:04:36;11.63;;;7.82;;
45368;SDS011;51342;55.250;37.668;2022-08-05T13:07:10;7.10;;;5.43;;
45368;SDS011;51342;55.250;37.668;2022-08-05T13:09:47;6.07;;;5.28;;
45368;SDS011;51342;55.250;37.668;2022-08-05T13:12:24;19.42;;;13.75;;
45368;SDS011;51342;55.250;37.668;2022-08-05T13:14:57;7.05;;;5.18;;
45368;SDS011;51342;55.250;37.668;2022-08-05T13:17:31;6.07;;;5.47;;
45368;SDS011;51342;55.250;37.668;2022-08-05T13:20:04;6.43;;;5.85;;
45368;SDS011;51342;55.250;37.668;2022-08-05T13:22:41;9.63;;;6.75;;
45368;SDS011;51342;55.250;37.668;2022-08-05T13:25:15;12.07;;;7.30;;
45368;SDS011;51342;55.250;37.668;2022-08-05T13:30:23;6.15;;;5.57;;
45368;SDS011;51342;55.250;37.668;2022-08-05T13:32:55;11.43;;;6.07;;
45368;SDS011;51342;55.250;37.668;2022-08-05T13:35:27;7.63;;;5.80;;
45368;SDS011;51342;55.250;37.668;2022-08-05T13:37:59;5.82;;;5.32;;
45368;SDS011;51342;55.250;37.668;2022-08-05T13:40:30;13.82;;;11.48;;
45368;SDS011;51342;55.250;37.668;2022-08-05T13:43:02;22.08;;;20.08;;
45368;SDS011;51342;55.250;37.668;2022-08-05T13:45:33;21.30;;;19.23;;
45368;SDS011;51342;55.250;37.668;2022-08-05T13:48:05;11.40;;;10.38;;
45368;SDS011;51342;55.250;37.668;2022-08-05T13:50:36;7.20;;;5.53;;
45368;SDS011;51342;55.250;37.668;2022-08-05T13:53:07;9.40;;;8.52;;
45368;SDS011;51342;55.250;37.668;2022-08-05T13:55:39;6.15;;;5.55;;
45368;SDS011;51342;55.250;37.668;2022-08-05T13:58:10;6.82;;;6.13;;
45368;SDS011;51342;55.250;37.668;2022-08-05T14:00:42;6.40;;;5.65;;
45368;SDS011;51342;55.250;37.668;2022-08-05T14:03:13;32.55;;;29.20;;
45368;SDS011;51342;55.250;37.668;2022-08-05T14:05:45;10.27;;;9.23;;
45368;SDS011;51342;55.250;37.668;2022-08-05T14:08:16;6.28;;;5.15;;
45368;SDS011;51342;55.250;37.668;2022-08-05T14:10:48;7.22;;;6.32;;
45368;SDS011;51342;55.250;37.668;2022-08-05T14:13:19;12.38;;;10.32;;
45368;SDS011;51342;55.250;37.668;2022-08-05T14:15:51;7.35;;;6.25;;
45368;SDS011;51342;55.250;37.668;2022-08-05T14:18:22;8.35;;;6.47;;
45368;SDS011;51342;55.250;37.668;2022-08-05T14:20:53;6.35;;;5.72;;
45368;SDS011;51342;55.250;37.668;2022-08-05T14:23:25;5.15;;;4.55;;
45368;SDS011;51342;55.250;37.668;2022-08-05T14:25:56;14.45;;;11.95;;
45368;SDS011;51342;55.250;37.668;2022-08-05T14:28:28;6.18;;;5.35;;
45368;SDS011;51342;55.250;37.668;2022-08-05T14:31:00;6.05;;;5.45;;
45368;SDS011;51342;55.250;37.668;2022-08-05T14:33:32;5.88;;;5.30;;
45368;SDS011;51342;55.250;37.668;2022-08-05T14:36:03;6.28;;;5.25;;
45368;SDS011;51342;55.250;37.668;2022-08-05T14:38:35;6.28;;;5.68;;
45368;SDS011;51342;55.250;37.668;2022-08-05T14:41:07;6.80;;;6.15;;
45368;SDS011;51342;55.250;37.668;2022-08-05T14:43:38;6.03;;;5.40;;
45368;SDS011;51342;55.250;37.668;2022-08-05T14:46:09;6.20;;;5.45;;
45368;SDS011;51342;55.250;37.668;2022-08-05T14:48:42;6.10;;;5.50;;
45368;SDS011;51342;55.250;37.668;2022-08-05T14:51:13;5.97;;;5.47;;
45368;SDS011;51342;55.250;37.668;2022-08-05T14:53:45;5.95;;;5.35;;
45368;SDS011;51342;55.250;37.668;2022-08-05T14:56:19;6.22;;;5.07;;
45368;SDS011;51342;55.250;37.668;2022-08-05T14:58:50;5.68;;;5.15;;
45368;SDS011;51342;55.250;37.668;2022-08-05T15:01:22;5.15;;;4.75;;
45368;SDS011;51342;55.250;37.668;2022-08-05T15:03:53;6.53;;;5.07;;
45368;SDS011;51342;55.250;37.668;2022-08-05T15:06:25;6.68;;;5.13;;
45368;SDS011;51342;55.250;37.668;2022-08-05T15:08:58;6.05;;;5.45;;
45368;SDS011;51342;55.250;37.668;2022-08-05T15:11:30;6.97;;;5.03;;
45368;SDS011;51342;55.250;37.668;2022-08-05T15:14:02;5.70;;;5.20;;
45368;SDS011;51342;55.250;37.668;2022-08-05T15:16:34;8.55;;;5.43;;
45368;SDS011;51342;55.250;37.668;2022-08-05T15:19:05;6.10;;;5.50;;
45368;SDS011;51342;55.250;37.668;2022-08-05T15:21:37;6.22;;;5.07;;
45368;SDS011;51342;55.250;37.668;2022-08-05T15:24:08;7.05;;;6.15;;
45368;SDS011;51342;55.250;37.668;2022-08-05T15:26:40;6.18;;;5.55;;
45368;SDS011;51342;55.250;37.668;2022-08-05T15:29:11;6.97;;;5.85;;
45368;SDS011;51342;55.250;37.668;2022-08-05T15:31:44;6.40;;;5.80;;
45368;SDS011;51342;55.250;37.668;2022-08-05T15:34:15;8.05;;;5.70;;
45368;SDS011;51342;55.250;37.668;2022-08-05T15:36:47;15.60;;;6.18;;
45368;SDS011;51342;55.250;37.668;2022-08-05T15:39:19;10.38;;;6.45;;
45368;SDS011;51342;55.250;37.668;2022-08-05T15:41:50;7.47;;;5.72;;
45368;SDS011;51342;55.250;37.668;2022-08-05T15:44:22;6.53;;;5.65;;
45368;SDS011;51342;55.250;37.668;2022-08-05T15:46:53;7.60;;;5.88;;
45368;SDS011;51342;55.250;37.668;2022-08-05T15:49:25;7.68;;;6.28;;
45368;SDS011;51342;55.250;37.668;2022-08-05T15:51:56;9.90;;;6.93;;
45368;SDS011;51342;55.250;37.668;2022-08-05T15:54:28;8.82;;;6.95;;
45368;SDS011;51342;55.250;37.668;2022-08-05T15:56:59;9.35;;;7.43;;